Time;durP1;ratioP1;P1;durP2;ratioP2;P2;SDS_P1;SDS_P2;PMS_P1;PMS_P2;Temp;Humidity;BMP_temperature;BMP_pressure;BME280_temperature;BME280_humidity;BME280_pressure;Samples;Min_cycle;Max_cycle;Signal;HPM_P1;HPM_P2
2023/05/01 00:00:09;;;;;;;0.70;0.70;;;;;;;15.50;61.91;101722.91;5031378;28;20069;-48
2023/05/01 00:02:35;;;;;;;0.80;0.80;;;;;;;15.49;61.69;101718.50;5029661;28;20041;-49
2023/05/01 00:05:01;;;;;;;1.15;0.90;;;;;;;15.49;61.66;101715.81;5028376;28;20076;-48
2023/05/01 00:07:29;;;;;;;0.90;0.77;;;;;;;15.49;61.68;101713.13;5027056;28;20060;-49
2023/05/01 00:09:57;;;;;;;1.13;0.80;;;;;;;15.48;61.46;101706.06;5027465;28;20632;-47
2023/05/01 00:12:23;;;;;;;0.93;0.77;;;;;;;15.49;61.76;101702.38;5026692;28;20034;-49
2023/05/01 00:14:49;;;;;;;0.70;0.70;;;;;;;15.49;61.57;101691.66;5027119;28;20141;-46
2023/05/01 00:17:15;;;;;;;0.82;0.82;;;;;;;15.48;61.76;101689.94;5010108;28;20060;-46
2023/05/01 00:19:40;;;;;;;0.85;0.70;;;;;;;15.48;61.53;101689.94;5027106;28;20030;-48
2023/05/01 00:22:06;;;;;;;1.05;0.95;;;;;;;15.48;61.87;101687.25;5026657;28;20042;-47
2023/05/01 00:24:32;;;;;;;0.80;0.80;;;;;;;15.48;61.92;101681.00;5026937;28;20040;-48
2023/05/01 00:26:57;;;;;;;0.77;0.77;;;;;;;15.47;61.47;101677.47;5027079;28;20076;-48
2023/05/01 00:29:23;;;;;;;1.83;0.90;;;;;;;15.47;61.83;101676.63;5027625;28;20092;-48
2023/05/01 00:31:48;;;;;;;0.70;0.70;;;;;;;15.48;61.52;101673.84;5026694;28;20432;-47
2023/05/01 00:34:13;;;;;;;0.75;0.75;;;;;;;15.48;61.50;101672.97;5027347;28;20121;-49
2023/05/01 00:36:39;;;;;;;0.70;0.70;;;;;;;15.47;61.44;101672.13;5026376;28;20042;-47
2023/05/01 00:39:06;;;;;;;1.15;1.05;;;;;;;15.47;61.71;101665.91;5020264;28;20032;-48
2023/05/01 00:41:33;;;;;;;0.95;0.93;;;;;;;15.47;61.73;101669.44;5026528;28;20044;-46
2023/05/01 00:43:58;;;;;;;0.70;0.70;;;;;;;15.47;61.55;101660.53;5027313;28;20077;-46
2023/05/01 00:46:24;;;;;;;0.73;0.73;;;;;;;15.47;61.84;101668.59;5026386;28;20033;-48
2023/05/01 00:48:51;;;;;;;0.98;0.90;;;;;;;15.46;61.48;101662.38;5027001;28;20049;-48
2023/05/01 00:51:17;;;;;;;1.00;1.00;;;;;;;15.45;61.78;101647.22;5026084;28;20060;-47
2023/05/01 00:53:44;;;;;;;1.58;1.10;;;;;;;15.46;61.41;101643.59;5026595;28;20111;-49
2023/05/01 00:56:10;;;;;;;1.02;1.00;;;;;;;15.46;61.63;101648.94;5027021;28;20037;-50
2023/05/01 00:58:37;;;;;;;1.45;0.90;;;;;;;15.46;61.63;101643.59;5026612;28;20109;-48
2023/05/01 01:01:04;;;;;;;1.33;1.10;;;;;;;15.45;61.54;101644.53;5027332;28;20126;-48
2023/05/01 01:03:30;;;;;;;1.20;1.10;;;;;;;15.46;61.60;101643.59;5024307;28;20036;-48
2023/05/01 01:06:21;;;;;;;0.70;0.70;;;;;;;15.48;61.56;101644.31;5026795;28;20029;-51
2023/05/01 01:08:52;;;;;;;1.02;0.77;;;;;;;15.46;61.50;101638.22;4994837;28;20483;-46
2023/05/01 01:11:40;;;;;;;0.60;0.60;;;;;;;15.47;61.39;101636.38;5026211;28;20030;-47
2023/05/01 01:14:36;;;;;;;0.70;0.70;;;;;;;15.45;61.61;101631.97;4992885;28;20064;-47
2023/05/01 01:17:16;;;;;;;1.00;0.90;;;;;;;15.44;61.59;101624.91;5023685;28;20132;-47
2023/05/01 01:19:56;;;;;;;0.88;0.82;;;;;;;15.46;61.69;101630.16;5026030;28;20072;-48
2023/05/01 01:22:25;;;;;;;0.80;0.80;;;;;;;15.44;61.50;101624.03;5020405;28;20108;-47
2023/05/01 01:25:06;;;;;;;1.10;0.75;;;;;;;15.46;61.62;101622.09;5026617;28;20107;-46
2023/05/01 01:28:00;;;;;;;0.80;0.80;;;;;;;15.45;61.68;101617.69;5024380;28;20470;-47
2023/05/01 01:30:44;;;;;;;1.58;1.00;;;;;;;15.47;61.63;101614.91;5026018;28;20490;-48
2023/05/01 01:33:27;;;;;;;0.80;0.77;;;;;;;15.46;61.37;101606.00;5026400;28;20101;-46
2023/05/01 01:35:56;;;;;;;0.70;0.70;;;;;;;15.45;61.52;101604.28;5026290;28;20041;-47
2023/05/01 01:38:39;;;;;;;1.17;0.77;;;;;;;15.44;61.53;101602.56;5026418;28;20479;-46
2023/05/01 01:41:18;;;;;;;0.90;0.90;;;;;;;15.42;61.43;101589.28;5027363;28;20216;-49
2023/05/01 01:43:51;;;;;;;2.30;0.95;;;;;;;15.43;61.69;101582.06;5026051;28;20380;-48
2023/05/01 01:46:19;;;;;;;0.80;0.80;;;;;;;15.43;61.73;101584.75;5019457;28;20384;-46
2023/05/01 01:48:49;;;;;;;1.00;0.80;;;;;;;15.42;61.81;101586.59;5026389;28;20033;-48
2023/05/01 01:51:18;;;;;;;0.82;0.82;;;;;;;15.41;61.63;101584.84;5025616;28;20539;-48
2023/05/01 01:53:48;;;;;;;1.25;1.00;;;;;;;15.41;61.46;101575.94;5026071;28;20030;-46
2023/05/01 01:56:16;;;;;;;0.60;0.60;;;;;;;15.42;61.24;101572.28;5025453;28;20037;-49
2023/05/01 01:58:44;;;;;;;1.15;0.90;;;;;;;15.40;61.55;101571.53;5025797;28;20499;-48
2023/05/01 02:01:12;;;;;;;0.75;0.75;;;;;;;15.40;61.48;101563.50;5025921;28;20139;-51
2023/05/01 02:03:38;;;;;;;1.45;0.98;;;;;;;15.40;61.50;101566.19;5008110;28;20134;-46
2023/05/01 02:06:06;;;;;;;1.77;0.85;;;;;;;15.39;61.38;101562.63;5025955;28;20033;-47
2023/05/01 02:08:34;;;;;;;0.90;0.90;;;;;;;15.39;61.42;101562.63;5025060;28;20024;-47
2023/05/01 02:11:02;;;;;;;0.70;0.70;;;;;;;15.41;61.60;101562.53;5025572;28;20803;-46
2023/05/01 02:13:28;;;;;;;1.08;0.98;;;;;;;15.40;61.18;101559.00;5025983;28;20091;-47
2023/05/01 02:15:59;;;;;;;1.00;0.90;;;;;;;15.39;61.43;101551.91;5025275;28;20033;-47
2023/05/01 02:18:27;;;;;;;0.80;0.80;;;;;;;15.40;61.37;101553.63;5026215;28;20040;-47
2023/05/01 02:20:55;;;;;;;0.80;0.80;;;;;;;15.41;61.46;101549.13;5024937;28;20033;-46
2023/05/01 02:23:22;;;;;;;1.08;0.98;;;;;;;15.39;61.21;101557.28;5025427;28;20179;-46
2023/05/01 02:25:51;;;;;;;0.70;0.70;;;;;;;15.40;61.49;101553.63;5008205;28;20029;-49
2023/05/01 02:28:22;;;;;;;0.80;0.80;;;;;;;15.40;61.40;101547.38;5025220;28;20048;-48
2023/05/01 02:30:47;;;;;;;0.80;0.80;;;;;;;15.40;61.41;101545.59;5025689;28;20037;-47
2023/05/01 02:33:13;;;;;;;0.82;0.82;;;;;;;15.40;61.41;101542.03;5025274;28;20387;-48
2023/05/01 02:35:48;;;;;;;0.85;0.85;;;;;;;15.40;61.52;101542.91;5025739;28;20041;-49
2023/05/01 02:38:15;;;;;;;0.80;0.80;;;;;;;15.39;61.46;101532.28;5026459;28;20141;-47
2023/05/01 02:40:45;;;;;;;0.80;0.80;;;;;;;15.38;61.58;101533.22;5024609;28;20464;-45
2023/05/01 02:43:15;;;;;;;0.98;0.82;;;;;;;15.37;61.45;101526.16;5026157;28;20033;-47
2023/05/01 02:45:43;;;;;;;1.13;0.95;;;;;;;15.38;61.35;101517.13;5026594;28;20029;-50
2023/05/01 02:48:12;;;;;;;1.08;0.98;;;;;;;15.38;61.47;101523.38;5029242;28;20025;-46
2023/05/01 02:50:41;;;;;;;1.48;0.90;;;;;;;15.37;61.55;101515.44;5029838;28;20053;-46
2023/05/01 02:53:07;;;;;;;1.27;1.17;;;;;;;15.37;61.13;101518.13;5029020;28;20037;-47
2023/05/01 02:55:33;;;;;;;1.25;1.10;;;;;;;15.35;61.02;101514.69;5029597;28;20044;-48
2023/05/01 02:57:59;;;;;;;0.90;0.90;;;;;;;15.35;61.44;101503.97;5028287;28;20037;-47
2023/05/01 03:00:25;;;;;;;0.80;0.73;;;;;;;15.34;61.27;101497.72;5029268;28;20116;-45
2023/05/01 03:02:51;;;;;;;0.80;0.80;;;;;;;15.35;61.59;101506.63;5029598;28;20029;-47
2023/05/01 03:05:16;;;;;;;0.80;0.80;;;;;;;15.34;60.95;101497.72;5028307;28;20060;-47
2023/05/01 03:07:42;;;;;;;0.75;0.75;;;;;;;15.34;61.18;101494.19;5029388;28;20087;-47
2023/05/01 03:10:07;;;;;;;0.80;0.80;;;;;;;15.34;61.12;101496.88;5028031;28;20041;-47
2023/05/01 03:12:33;;;;;;;0.90;0.90;;;;;;;15.33;61.20;101497.84;5028449;28;20499;-48
2023/05/01 03:14:58;;;;;;;0.80;0.80;;;;;;;15.34;61.23;101499.53;5027735;28;20077;-47
2023/05/01 03:17:24;;;;;;;1.00;1.00;;;;;;;15.33;61.19;101493.34;5028078;28;20062;-46
2023/05/01 03:19:50;;;;;;;1.00;0.90;;;;;;;15.34;61.15;101492.34;5028723;28;20117;-46
2023/05/01 03:22:16;;;;;;;1.95;0.90;;;;;;;15.34;61.30;101488.81;5028101;28;20036;-48
2023/05/01 03:24:41;;;;;;;2.15;1.00;;;;;;;15.33;61.27;101485.28;5028985;28;20050;-46
2023/05/01 03:27:07;;;;;;;0.90;0.90;;;;;;;15.34;61.23;101484.28;5027589;28;20064;-47
2023/05/01 03:29:33;;;;;;;0.90;0.90;;;;;;;15.33;61.18;101479.06;5028021;28;20037;-47
2023/05/01 03:31:59;;;;;;;0.93;0.75;;;;;;;15.33;60.79;101471.88;5028767;28;20496;-45
2023/05/01 03:34:26;;;;;;;0.93;0.90;;;;;;;15.32;61.03;101471.97;5028070;28;20112;-47
2023/05/01 03:36:51;;;;;;;1.00;1.00;;;;;;;15.31;61.07;101471.13;5021968;28;20026;-47
2023/05/01 03:39:17;;;;;;;0.88;0.88;;;;;;;15.32;60.97;101471.97;5026723;28;20025;-46
2023/05/01 03:41:43;;;;;;;0.90;0.90;;;;;;;15.32;60.90;101469.28;5017143;28;20034;-49
2023/05/01 03:44:08;;;;;;;0.98;0.90;;;;;;;15.32;60.77;101463.94;5010111;28;20030;-47
2023/05/01 03:46:34;;;;;;;0.88;0.88;;;;;;;15.32;60.94;101467.47;5028099;28;20053;-46
2023/05/01 03:48:59;;;;;;;2.00;1.10;;;;;;;15.32;61.18;101463.94;5027431;28;20025;-46
2023/05/01 03:51:26;;;;;;;1.10;1.10;;;;;;;15.32;60.94;101469.28;5028014;28;20026;-47
2023/05/01 03:53:51;;;;;;;1.10;1.00;;;;;;;15.32;61.20;101455.88;5028441;28;20030;-46
2023/05/01 03:56:17;;;;;;;0.93;0.90;;;;;;;15.31;61.07;101457.72;5027096;28;20084;-47
2023/05/01 03:58:42;;;;;;;1.00;1.00;;;;;;;15.32;60.90;101453.19;5027940;28;20040;-47
2023/05/01 04:01:08;;;;;;;1.52;1.10;;;;;;;15.31;61.00;101454.19;5027081;28;20056;-48
2023/05/01 04:03:33;;;;;;;0.80;0.80;;;;;;;15.31;60.85;101448.81;5027694;28;20057;-46
2023/05/01 04:05:59;;;;;;;0.80;0.80;;;;;;;15.31;60.81;101451.50;5027934;28;20124;-47
2023/05/01 04:08:24;;;;;;;1.35;1.05;;;;;;;15.31;61.08;101456.88;5027329;28;20034;-46
2023/05/01 04:10:50;;;;;;;1.00;1.00;;;;;;;15.30;60.98;101449.78;5028134;28;20029;-46
2023/05/01 04:13:15;;;;;;;1.20;1.10;;;;;;;15.31;61.03;101448.81;5026894;28;20403;-48
2023/05/01 04:15:45;;;;;;;0.80;0.80;;;;;;;15.30;61.08;101450.63;5028002;28;20090;-47
2023/05/01 04:18:10;;;;;;;3.67;1.02;;;;;;;15.30;60.95;101452.44;5028608;28;20048;-46
2023/05/01 04:20:36;;;;;;;1.63;1.10;;;;;;;15.30;60.96;101445.25;5027339;28;20395;-48
2023/05/01 04:23:01;;;;;;;1.10;1.00;;;;;;;15.29;61.13;101440.88;5027593;28;20040;-46
2023/05/01 04:25:27;;;;;;;1.30;1.00;;;;;;;15.29;60.83;101443.56;5026733;28;20025;-45
2023/05/01 04:27:52;;;;;;;1.10;1.00;;;;;;;15.29;61.07;101446.25;5027278;28;20505;-49
2023/05/01 04:30:17;;;;;;;1.10;1.00;;;;;;;15.28;60.75;101449.03;5026356;28;20029;-47
2023/05/01 04:32:43;;;;;;;0.85;0.85;;;;;;;15.29;60.96;101450.72;5027183;28;20024;-46
2023/05/01 04:35:11;;;;;;;1.45;1.15;;;;;;;15.28;61.01;101441.84;5027304;28;20040;-47
2023/05/01 04:37:36;;;;;;;1.15;1.08;;;;;;;15.28;60.69;101447.19;5026418;28;20056;-47
2023/05/01 04:40:02;;;;;;;1.17;0.90;;;;;;;15.29;61.10;101453.41;5026209;28;20075;-49
2023/05/01 04:42:31;;;;;;;1.65;1.23;;;;;;;15.28;61.21;101457.09;5026230;28;20076;-48
2023/05/01 04:44:56;;;;;;;1.17;0.98;;;;;;;15.27;60.72;101458.03;5026914;28;20507;-47
2023/05/01 04:47:22;;;;;;;1.27;1.10;;;;;;;15.27;60.89;101455.34;5026815;28;20037;-48
2023/05/01 04:49:47;;;;;;;1.10;1.00;;;;;;;15.27;61.22;101455.34;5026603;28;20041;-46
2023/05/01 04:52:13;;;;;;;1.30;1.20;;;;;;;15.26;61.02;101454.50;5027415;28;20494;-47
2023/05/01 04:54:38;;;;;;;2.53;0.93;;;;;;;15.27;61.23;101461.59;5025922;28;20112;-47
2023/05/01 04:57:03;;;;;;;1.10;1.00;;;;;;;15.27;60.90;101455.34;5026631;28;20036;-46
2023/05/01 04:59:29;;;;;;;1.40;1.30;;;;;;;15.26;60.83;101446.47;5029485;28;20032;-48
2023/05/01 05:01:54;;;;;;;1.25;1.15;;;;;;;15.27;60.98;101455.34;5032747;28;20033;-50
2023/05/01 05:04:19;;;;;;;0.80;0.80;;;;;;;15.25;60.72;101440.25;5026969;28;20041;-48
2023/05/01 05:06:45;;;;;;;0.85;0.85;;;;;;;15.27;61.12;101450.00;5008500;28;20037;-48
2023/05/01 05:09:11;;;;;;;1.30;1.20;;;;;;;15.26;60.74;101449.13;5026244;28;20095;-46
2023/05/01 05:11:37;;;;;;;1.00;1.00;;;;;;;15.25;60.89;101445.59;5026791;28;20116;-47
2023/05/01 05:14:02;;;;;;;1.13;1.00;;;;;;;15.25;61.03;101448.28;5025806;28;20141;-50
2023/05/01 05:16:28;;;;;;;0.90;0.90;;;;;;;15.25;60.90;101440.25;5026858;28;20059;-47
2023/05/01 05:18:56;;;;;;;1.25;0.95;;;;;;;15.25;60.84;101450.97;5025906;28;20413;-49
2023/05/01 05:21:21;;;;;;;1.27;1.00;;;;;;;15.26;61.24;101446.47;5036011;28;20474;-46
2023/05/01 05:23:47;;;;;;;0.80;0.80;;;;;;;15.26;60.74;101449.13;5027221;28;20537;-46
2023/05/01 05:26:12;;;;;;;1.15;1.00;;;;;;;15.25;61.15;101448.28;5025908;28;20033;-46
2023/05/01 05:28:37;;;;;;;1.30;0.95;;;;;;;15.25;61.16;101442.94;5026398;28;20099;-46
2023/05/01 05:31:03;;;;;;;0.95;0.95;;;;;;;15.25;61.06;101440.25;5025657;28;20040;-46
2023/05/01 05:33:28;;;;;;;0.82;0.82;;;;;;;15.27;60.91;101441.94;5026294;28;20026;-46
2023/05/01 05:35:54;;;;;;;1.38;0.88;;;;;;;15.27;61.09;101447.31;5026488;28;20483;-48
2023/05/01 05:38:19;;;;;;;0.90;0.90;;;;;;;15.27;60.70;101450.88;5025678;28;20029;-48
2023/05/01 05:40:45;;;;;;;1.27;1.00;;;;;;;15.27;61.12;101447.31;5030031;28;20029;-46
2023/05/01 05:43:10;;;;;;;0.90;0.90;;;;;;;15.28;60.90;101441.84;5025272;28;20029;-46
2023/05/01 05:45:36;;;;;;;1.83;1.05;;;;;;;15.26;60.99;101449.13;5025872;28;20021;-46
2023/05/01 05:48:02;;;;;;;1.05;1.00;;;;;;;15.28;61.10;101446.34;5026385;28;20040;-48
2023/05/01 05:50:28;;;;;;;1.02;1.02;;;;;;;15.27;61.04;101441.94;5025628;28;20495;-47
2023/05/01 05:52:54;;;;;;;1.73;1.27;;;;;;;15.28;60.96;101446.34;5026423;28;20040;-49
2023/05/01 05:55:19;;;;;;;0.90;0.90;;;;;;;15.27;61.17;101440.13;5025265;28;20496;-50
2023/05/01 05:57:45;;;;;;;1.23;1.08;;;;;;;15.28;61.23;101447.19;5027926;28;20033;-47
2023/05/01 06:00:11;;;;;;;0.80;0.80;;;;;;;15.28;61.00;101432.94;5033681;28;20129;-47
2023/05/01 06:02:36;;;;;;;0.80;0.80;;;;;;;15.29;60.97;101434.63;5025406;28;20123;-46
2023/05/01 06:05:02;;;;;;;0.90;0.90;;;;;;;15.28;61.12;101435.63;5025974;28;20068;-46
2023/05/01 06:07:28;;;;;;;0.98;0.98;;;;;;;15.28;60.82;101432.94;5025414;28;20041;-47
2023/05/01 06:09:54;;;;;;;0.90;0.90;;;;;;;15.29;61.12;101435.50;5025550;28;20034;-47
2023/05/01 06:12:19;;;;;;;2.13;1.50;;;;;;;15.28;61.16;101431.09;5027065;28;20490;-47
2023/05/01 06:14:45;;;;;;;1.10;1.10;;;;;;;15.28;60.88;101435.63;5025204;28;20061;-48
2023/05/01 06:17:10;;;;;;;1.75;1.10;;;;;;;15.28;60.94;101430.25;5025627;28;20077;-50
2023/05/01 06:19:36;;;;;;;1.08;0.90;;;;;;;15.27;60.90;101432.09;5025211;28;20029;-49
2023/05/01 06:22:01;;;;;;;0.98;0.98;;;;;;;15.28;60.98;101440.97;5029165;28;20104;-47
2023/05/01 06:24:27;;;;;;;1.25;1.15;;;;;;;15.29;61.14;101435.50;5028929;28;20040;-48
2023/05/01 06:26:52;;;;;;;1.17;1.08;;;;;;;15.28;61.16;101430.25;5028196;28;20037;-48
2023/05/01 06:29:18;;;;;;;0.90;0.90;;;;;;;15.29;60.94;101426.59;5030232;28;20034;-50
2023/05/01 06:31:44;;;;;;;0.93;0.82;;;;;;;15.28;60.64;101425.72;5028664;28;20025;-46
2023/05/01 06:34:10;;;;;;;0.75;0.75;;;;;;;15.29;61.14;101443.56;5029403;28;20116;-48
2023/05/01 06:36:35;;;;;;;1.73;1.00;;;;;;;15.30;60.81;101439.03;5028677;28;20498;-48
2023/05/01 06:39:00;;;;;;;1.08;0.93;;;;;;;15.29;60.89;101432.81;5029007;28;20040;-50
2023/05/01 06:41:26;;;;;;;1.45;1.10;;;;;;;15.29;60.67;101426.59;5029151;28;20112;-48
2023/05/01 06:43:51;;;;;;;0.82;0.82;;;;;;;15.30;60.94;101433.69;5027566;28;20037;-49
2023/05/01 06:46:17;;;;;;;1.40;1.30;;;;;;;15.30;60.74;101433.69;5035576;28;20104;-48
2023/05/01 06:48:42;;;;;;;1.00;0.98;;;;;;;15.31;60.86;101432.72;5029271;28;20403;-48
2023/05/01 06:51:07;;;;;;;1.00;1.00;;;;;;;15.31;60.95;101430.03;5028623;28;20033;-46
2023/05/01 06:53:33;;;;;;;1.13;1.02;;;;;;;15.30;61.09;101429.16;5029092;28;20045;-48
2023/05/01 06:55:59;;;;;;;1.02;0.85;;;;;;;15.31;61.18;101433.56;5028313;28;20044;-47
2023/05/01 06:58:24;;;;;;;1.27;1.10;;;;;;;15.31;61.00;101425.50;5028792;28;20037;-50
2023/05/01 07:00:51;;;;;;;1.20;1.10;;;;;;;15.31;61.29;101425.50;5014785;28;20068;-50
2023/05/01 07:03:16;;;;;;;1.00;0.90;;;;;;;15.32;61.01;101423.69;5034620;28;20044;-49
2023/05/01 07:05:41;;;;;;;1.25;1.20;;;;;;;15.32;60.95;101423.69;5028948;28;20470;-48
2023/05/01 07:08:08;;;;;;;1.17;1.10;;;;;;;15.33;60.93;101428.09;5028037;28;20041;-49
2023/05/01 07:10:35;;;;;;;1.33;1.20;;;;;;;15.32;61.17;101429.03;5032031;28;20453;-48
2023/05/01 07:13:03;;;;;;;1.23;1.13;;;;;;;15.32;61.48;101431.72;5039373;28;20045;-47
2023/05/01 07:15:28;;;;;;;1.20;1.10;;;;;;;15.32;61.30;101427.22;5027835;28;20042;-50
2023/05/01 07:17:55;;;;;;;2.03;1.02;;;;;;;15.33;61.16;101428.09;5028801;28;20534;-49
2023/05/01 07:20:20;;;;;;;1.48;1.20;;;;;;;15.33;61.27;101428.94;5028464;28;20059;-51
2023/05/01 07:22:46;;;;;;;1.73;1.33;;;;;;;15.34;61.36;101425.28;5028834;28;20471;-50
2023/05/01 07:25:12;;;;;;;1.65;1.20;;;;;;;15.34;61.27;101432.47;5028040;28;20109;-50
2023/05/01 07:27:37;;;;;;;1.30;1.20;;;;;;;15.34;61.57;101425.28;5028115;28;20048;-46
2023/05/01 07:30:04;;;;;;;2.25;1.13;;;;;;;15.35;61.25;101423.47;5036543;28;20113;-48
2023/05/01 07:32:29;;;;;;;1.17;1.10;;;;;;;15.35;61.17;101426.16;5027737;28;20041;-47
2023/05/01 07:34:55;;;;;;;1.23;1.10;;;;;;;15.34;61.33;101425.28;5028559;28;20432;-46
2023/05/01 07:37:20;;;;;;;1.27;1.13;;;;;;;15.35;61.65;101427.00;5028099;28;20471;-47
2023/05/01 07:39:45;;;;;;;1.25;1.13;;;;;;;15.36;61.24;101431.38;5024813;28;20041;-48
2023/05/01 07:42:11;;;;;;;1.63;1.10;;;;;;;15.36;61.35;101434.06;5031184;28;20037;-49
2023/05/01 07:44:36;;;;;;;1.20;1.10;;;;;;;15.37;61.42;101429.56;5027650;28;20518;-50
2023/05/01 07:47:03;;;;;;;1.17;1.10;;;;;;;15.38;61.34;101425.91;5028262;28;20043;-51
2023/05/01 07:49:29;;;;;;;1.05;1.05;;;;;;;15.37;61.55;101429.56;5027292;28;20168;-48
2023/05/01 07:51:54;;;;;;;1.33;1.20;;;;;;;15.39;61.38;101430.31;5035284;28;20152;-49
2023/05/01 07:54:21;;;;;;;1.50;1.40;;;;;;;15.39;61.52;101433.84;5028606;28;20026;-49
2023/05/01 07:56:47;;;;;;;1.00;0.95;;;;;;;15.40;61.36;101437.38;5009267;28;20076;-48
2023/05/01 07:59:13;;;;;;;1.25;1.15;;;;;;;15.39;61.45;101436.53;5032605;28;20049;-48
2023/05/01 08:01:40;;;;;;;1.38;1.27;;;;;;;15.40;61.67;101432.88;5029061;28;20037;-47
2023/05/01 08:04:05;;;;;;;1.52;1.20;;;;;;;15.41;61.38;101436.41;5027952;28;20450;-48
2023/05/01 08:06:31;;;;;;;1.15;1.08;;;;;;;15.41;61.72;101433.72;5028234;28;20060;-46
2023/05/01 08:08:56;;;;;;;1.25;1.15;;;;;;;15.43;61.46;101439.84;5027347;28;20041;-48
2023/05/01 08:11:25;;;;;;;1.20;1.02;;;;;;;15.43;61.60;101439.84;5028088;28;20029;-46
2023/05/01 08:13:50;;;;;;;1.65;1.20;;;;;;;15.43;61.77;101429.09;5026809;28;20045;-50
2023/05/01 08:16:16;;;;;;;1.38;1.20;;;;;;;15.44;61.86;101434.38;5027179;28;20088;-48
2023/05/01 08:18:41;;;;;;;1.63;1.30;;;;;;;15.45;61.84;101438.75;5027944;28;20088;-48
2023/05/01 08:21:06;;;;;;;1.45;1.30;;;;;;;15.46;62.04;101431.56;5026944;28;20399;-48
2023/05/01 08:23:32;;;;;;;1.27;1.17;;;;;;;15.47;61.80;101422.53;5009826;28;20447;-49
2023/05/01 08:25:57;;;;;;;1.30;1.20;;;;;;;15.49;61.85;101417.06;5026627;28;20107;-51
2023/05/01 08:28:23;;;;;;;1.10;1.10;;;;;;;15.49;61.86;101423.25;5027591;28;20041;-51
2023/05/01 08:30:48;;;;;;;1.33;1.15;;;;;;;15.49;61.76;101420.59;5027615;28;20049;-51
2023/05/01 08:33:14;;;;;;;1.70;1.00;;;;;;;15.51;61.60;101420.47;5026657;28;20079;-50
2023/05/01 08:35:39;;;;;;;1.33;1.10;;;;;;;15.51;61.73;101425.84;5027282;28;20045;-49
2023/05/01 08:38:05;;;;;;;1.27;1.17;;;;;;;15.51;61.97;101421.31;5026533;28;20026;-46
2023/05/01 08:40:34;;;;;;;1.20;1.10;;;;;;;15.53;62.15;101413.16;5026733;28;20045;-50
2023/05/01 08:43:01;;;;;;;1.40;1.30;;;;;;;15.54;62.25;101425.63;5008055;28;20388;-50
2023/05/01 08:45:29;;;;;;;1.58;1.30;;;;;;;15.54;61.88;101417.56;5027774;28;20464;-47
2023/05/01 08:47:57;;;;;;;1.00;1.00;;;;;;;15.55;61.93;101412.06;5026740;28;20061;-47
2023/05/01 08:50:24;;;;;;;1.80;1.40;;;;;;;15.55;62.31;101421.94;5027437;28;20091;-48
2023/05/01 08:52:51;;;;;;;2.15;1.20;;;;;;;15.55;62.22;101417.44;5026374;28;20057;-46
2023/05/01 08:55:19;;;;;;;1.10;1.02;;;;;;;15.56;62.10;101423.69;5026582;28;20041;-49
2023/05/01 08:57:46;;;;;;;1.00;1.00;;;;;;;15.56;62.02;101429.88;5017208;28;20437;-47
2023/05/01 09:00:20;;;;;;;1.00;1.00;;;;;;;15.56;61.96;101429.88;5026224;28;20394;-46
2023/05/01 09:02:47;;;;;;;1.17;1.10;;;;;;;15.57;61.93;101428.06;5028536;28;20104;-46
2023/05/01 09:05:19;;;;;;;1.42;1.33;;;;;;;15.58;61.87;101427.09;5030347;28;20037;-46
2023/05/01 09:07:45;;;;;;;1.13;1.10;;;;;;;15.58;62.35;101430.63;5026414;28;20052;-47
2023/05/01 09:10:12;;;;;;;1.77;1.10;;;;;;;15.58;61.96;101430.63;5026947;28;20029;-46
2023/05/01 09:12:38;;;;;;;2.22;1.13;;;;;;;15.58;62.12;101427.94;5026087;28;20037;-46
2023/05/01 09:15:06;;;;;;;1.40;1.30;;;;;;;15.59;62.12;101428.78;5026415;28;20487;-48
2023/05/01 09:17:31;;;;;;;1.20;1.10;;;;;;;15.59;62.23;101429.66;5025815;28;20451;-49
2023/05/01 09:19:58;;;;;;;1.02;1.00;;;;;;;15.61;62.29;101426.84;5026571;28;20060;-49
2023/05/01 09:22:23;;;;;;;2.22;1.30;;;;;;;15.61;62.11;101427.72;5027170;28;20037;-47
2023/05/01 09:24:49;;;;;;;1.40;1.30;;;;;;;15.62;62.05;101424.06;5025934;28;20045;-47
2023/05/01 09:27:14;;;;;;;1.40;1.20;;;;;;;15.62;61.97;101426.72;5026461;28;20163;-51
2023/05/01 09:29:45;;;;;;;2.17;1.33;;;;;;;15.63;62.13;101431.16;5025410;28;20124;-50
2023/05/01 09:32:15;;;;;;;1.65;1.40;;;;;;;15.64;62.35;101430.16;5025771;28;20029;-46
2023/05/01 09:34:40;;;;;;;1.33;1.20;;;;;;;15.64;62.34;101427.47;5026491;28;20032;-47
2023/05/01 09:37:06;;;;;;;1.33;1.23;;;;;;;15.65;62.58;101428.34;5025894;28;20042;-48
2023/05/01 09:39:31;;;;;;;1.42;1.20;;;;;;;15.66;62.34;101422.00;5027584;28;20037;-47
2023/05/01 09:41:57;;;;;;;1.45;1.35;;;;;;;15.67;62.25;101428.22;5024783;28;20038;-49
2023/05/01 09:44:22;;;;;;;1.65;1.35;;;;;;;15.67;62.55;101417.47;5025358;28;20484;-46
2023/05/01 09:46:48;;;;;;;1.15;1.13;;;;;;;15.68;62.45;101424.56;5026534;28;20030;-45
2023/05/01 09:49:14;;;;;;;1.27;1.17;;;;;;;15.68;62.38;101424.56;5025758;28;20048;-47
2023/05/01 09:51:40;;;;;;;1.23;1.15;;;;;;;15.68;62.47;101417.34;5026545;28;20042;-47
2023/05/01 09:54:17;;;;;;;1.63;1.27;;;;;;;15.70;62.53;101423.47;5026745;28;20034;-46
2023/05/01 09:56:47;;;;;;;1.83;1.42;;;;;;;15.72;62.21;101428.72;5030362;28;20113;-48
2023/05/01 09:59:19;;;;;;;1.83;1.42;;;;;;;15.72;62.47;101428.72;5029276;28;20114;-47
2023/05/01 10:01:46;;;;;;;1.40;1.30;;;;;;;15.73;62.41;101425.97;5029757;28;20163;-46
2023/05/01 10:04:12;;;;;;;1.42;1.33;;;;;;;15.74;62.40;101430.34;5030327;28;20430;-48
2023/05/01 10:06:38;;;;;;;1.52;1.40;;;;;;;15.74;62.62;101426.81;5029270;28;20049;-48
2023/05/01 10:09:16;;;;;;;1.95;1.23;;;;;;;15.74;62.70;101424.97;5029708;28;20033;-50
2023/05/01 10:11:52;;;;;;;1.77;1.60;;;;;;;15.76;62.54;101431.09;5011346;28;20026;-50
2023/05/01 10:14:19;;;;;;;2.97;1.40;;;;;;;15.76;62.31;101430.22;5024372;28;20063;-51
2023/05/01 10:16:45;;;;;;;1.40;1.30;;;;;;;15.77;62.34;101431.94;5029106;28;20120;-51
2023/05/01 10:19:11;;;;;;;1.65;1.50;;;;;;;15.76;62.51;101431.09;5029801;28;20035;-49
2023/05/01 10:21:36;;;;;;;1.73;1.50;;;;;;;15.78;62.36;101429.16;5028921;28;20064;-49
2023/05/01 10:24:06;;;;;;;1.42;1.33;;;;;;;15.78;62.11;101430.97;5018612;28;20439;-51
2023/05/01 10:26:35;;;;;;;1.50;1.40;;;;;;;15.78;62.39;101433.66;5030061;28;20104;-49
2023/05/01 10:29:02;;;;;;;1.50;1.40;;;;;;;15.79;62.49;101436.22;5029616;28;20128;-51
2023/05/01 10:31:28;;;;;;;1.83;1.50;;;;;;;15.80;62.61;101440.63;5029916;28;20068;-50
2023/05/01 10:33:55;;;;;;;1.75;1.30;;;;;;;15.79;62.51;101438.91;5028971;28;20485;-49
2023/05/01 10:36:46;;;;;;;2.78;1.88;;;;;;;15.83;62.54;101437.69;5011979;28;20537;-49
2023/05/01 10:39:40;;;;;;;1.60;1.50;;;;;;;15.85;62.61;101440.25;5029613;28;20112;-48
2023/05/01 10:42:10;;;;;;;2.65;1.63;;;;;;;15.82;62.71;101436.00;5025950;28;20077;-51
2023/05/01 10:44:36;;;;;;;1.70;1.50;;;;;;;15.83;62.85;101439.53;5030305;28;20049;-50
2023/05/01 10:47:23;;;;;;;1.80;1.70;;;;;;;15.85;62.64;101434.91;5029158;28;20411;-50
2023/05/01 10:50:08;;;;;;;1.92;1.55;;;;;;;15.87;62.54;101437.47;5028979;28;20039;-50
2023/05/01 10:53:10;;;;;;;1.75;1.60;;;;;;;15.86;62.45;101442.00;5029519;28;20106;-49
2023/05/01 10:55:44;;;;;;;1.90;1.65;;;;;;;15.86;62.50;101450.03;5029799;28;20061;-51
2023/05/01 10:58:10;;;;;;;3.00;1.63;;;;;;;15.86;62.75;101443.78;5028679;28;20033;-47
2023/05/01 11:00:35;;;;;;;2.20;1.63;;;;;;;15.85;62.74;101437.56;5028928;28;20037;-46
2023/05/01 11:03:23;;;;;;;3.10;1.92;;;;;;;15.89;62.73;101441.72;5029906;28;20129;-46
2023/05/01 11:06:03;;;;;;;2.15;1.70;;;;;;;15.89;63.03;101443.56;5033580;28;20025;-46
2023/05/01 11:08:33;;;;;;;2.50;1.92;;;;;;;15.88;62.83;101448.09;5029170;28;20044;-48
2023/05/01 11:11:20;;;;;;;2.50;1.92;;;;;;;15.90;62.58;101443.47;5028285;28;20041;-47
2023/05/01 11:14:07;;;;;;;2.58;1.63;;;;;;;15.91;62.69;101442.47;5027642;28;20046;-47
2023/05/01 11:16:34;;;;;;;1.98;1.77;;;;;;;15.91;62.93;101442.47;5030180;28;20041;-46
2023/05/01 11:18:59;;;;;;;2.28;1.80;;;;;;;15.91;62.77;101449.69;5028847;28;20034;-50
2023/05/01 11:21:33;;;;;;;1.63;1.50;;;;;;;15.90;62.76;101443.47;5028693;28;20035;-46
2023/05/01 11:24:08;;;;;;;2.63;1.95;;;;;;;15.93;62.81;101447.72;5010415;28;20032;-49
2023/05/01 11:26:38;;;;;;;1.85;1.45;;;;;;;15.91;62.86;101447.84;5028685;28;20380;-51